»·PEaware :: AWE180 KPHX-KPSP

AWE180 :: KPHX-KPSP

FLIGHT INFORMATION

Flight Status: Arrived
Operator:
US Airways
More flights by this operator :: More flights under this callsign
Pilot: Etienne B. (28927)
Aircraft: AIRBUS A320
(A320)
More flights by this aircraft type
Origin: KPHX Phoenix Sky Harbor Intl
United States
Destination: KPSP Palm Springs Intl
United States
More flights between these airports :: More routes between these airports
Route: +KEENS2 HRRBR CURIV J212 DECAS SBONO1
File this flight plan on PilotEdge
Remarks: RMK / SIMBRIEF
Altitude:
(Current/Filed)
32,000ft
Speed:
(Current/Filed)
440kts
Departed: 20-May-20 05:05 PM
Arrived: 20-May-20 05:50 PM
Distance/Time
Traveled:
226nm/0:45
Distance/Time
To Go:
Arrived

Flight Plot

Page will automatically refresh every two minutes.

Flight plan parsing failed; only flown route is shown


Map Options




Map Legend


Flown Route
Filed Route
Departure Airport
Arrival Airport
Navaid (VOR, NDB)
Fix

Horizontal Profiles

Position Reports

Time Latitude Longitude Heading Altitude Ground
Speed
20-May-20 16:47 33.433928 -111.999878 83 1128ft 0kts
20-May-20 16:48 33.433928 -111.999878 83 1128ft 0kts
20-May-20 16:49 33.433928 -111.999878 83 1128ft 0kts
20-May-20 16:50 33.433928 -111.999878 83 1128ft 0kts
20-May-20 16:51 33.433928 -111.999878 83 1128ft 0kts
20-May-20 16:52 33.433928 -111.999878 83 1128ft 0kts
20-May-20 16:53 33.433928 -111.999879 83 1128ft 0kts
20-May-20 16:54 33.433928 -111.999879 83 1128ft 0kts
20-May-20 16:55 33.433950 -112.000087 114 1128ft 2kts
20-May-20 16:56 33.434345 -112.000354 182 1128ft 0kts
20-May-20 16:57 33.434344 -112.000354 182 1128ft 0kts
20-May-20 16:58 33.434290 -112.000357 182 1128ft 2kts
20-May-20 16:59 33.433618 -112.000373 180 1128ft 0kts
20-May-20 17:00 33.433617 -112.000373 180 1128ft 0kts
20-May-20 17:01 33.432821 -111.999082 89 1126ft 18kts
20-May-20 17:02 33.432363 -111.992379 207 1127ft 10kts
20-May-20 17:03 33.431057 -111.994339 268 1125ft 23kts
20-May-20 17:04 33.431096 -112.039407 270 1966ft 194kts
20-May-20 17:05 33.415459 -112.105432 247 4452ft 231kts
20-May-20 17:06 33.389699 -112.185223 259 6726ft 278kts
20-May-20 17:07 33.400916 -112.276487 281 9712ft 284kts
20-May-20 17:08 33.416936 -112.376715 280 11264ft 338kts
20-May-20 17:09 33.434110 -112.491446 280 13474ft 355kts
20-May-20 17:10 33.450095 -112.609063 273 15740ft 362kts
20-May-20 17:11 33.451886 -112.730439 270 17816ft 369kts
20-May-20 17:12 33.462836 -112.853563 281 19724ft 376kts
20-May-20 17:13 33.485805 -112.976409 281 21472ft 382kts
20-May-20 17:14 33.509034 -113.101435 281 23044ft 387kts
20-May-20 17:15 33.532432 -113.228070 281 24443ft 393kts
20-May-20 17:17 33.556030 -113.356582 281 25721ft 398kts
20-May-20 17:18 33.579856 -113.487137 281 26883ft 403kts
20-May-20 17:19 33.604317 -113.618870 281 27937ft 408kts
20-May-20 17:20 33.629069 -113.752297 280 28941ft 412kts
20-May-20 17:21 33.653947 -113.887220 281 29877ft 415kts
20-May-20 17:22 33.678447 -114.020491 280 31434ft 401kts
20-May-20 17:23 33.702312 -114.151280 280 31956ft 405kts
20-May-20 17:24 33.726261 -114.283387 280 31957ft 404kts
20-May-20 17:25 33.749537 -114.412684 280 31447ft 382kts
20-May-20 17:26 33.771157 -114.535172 278 30632ft 372kts
20-May-20 17:27 33.779751 -114.658538 273 29806ft 369kts
20-May-20 17:28 33.786679 -114.778719 273 28264ft 353kts
20-May-20 17:29 33.793201 -114.893754 273 26654ft 338kts
20-May-20 17:30 33.799383 -115.004536 273 25082ft 325kts
20-May-20 17:30 33.804303 -115.093899 272 23806ft 321kts
20-May-20 17:32 33.811034 -115.218078 271 22005ft 319kts
20-May-20 17:33 33.816675 -115.324071 271 20443ft 316kts
20-May-20 17:33 33.821261 -115.411591 271 19150ft 313kts
20-May-20 17:34 33.841708 -115.512488 289 17577ft 314kts
20-May-20 17:36 33.878119 -115.625557 289 15777ft 309kts
20-May-20 17:36 33.903839 -115.705650 289 14497ft 306kts
20-May-20 17:37 33.911652 -115.805210 265 13002ft 315kts
20-May-20 17:38 33.905359 -115.908048 265 11535ft 295kts
20-May-20 17:39 33.894876 -116.003160 238 11008ft 286kts
20-May-20 17:40 33.847076 -116.079160 232 10811ft 286kts
20-May-20 17:41 33.800405 -116.151407 232 9057ft 267kts
20-May-20 17:42 33.754686 -116.222271 232 6732ft 269kts
20-May-20 17:43 33.715704 -116.294414 246 4903ft 242kts
20-May-20 17:44 33.706025 -116.371336 280 3858ft 222kts
20-May-20 17:45 33.737186 -116.424737 322 2598ft 186kts
20-May-20 17:46 33.772435 -116.456124 319 1546ft 140kts
20-May-20 17:47 33.803551 -116.484352 320 892ft 144kts
20-May-20 17:48 33.833669 -116.511277 326 445ft 55kts
20-May-20 17:49 33.836539 -116.514767 235 461ft 0kts
20-May-20 17:50 33.836520 -116.514800 237 461ft 0kts
20-May-20 17:51 33.832397 -116.512288 144 443ft 30kts
20-May-20 17:52 33.825707 -116.507008 183 421ft 18kts
20-May-20 17:53 33.823841 -116.506559 194 417ft 0kts

Navigation Log

Ident Type
Flight plan parsing failed, navigation log unavailable